PWSweather.com
Personal Weather Stations
Station Observations
WATERF01
WaterfordIE

WaterfordIE

Lat: 52.2412507, Lon: -7.1414691

Elevation: 65

Station Type: Davis Vantage Vue

www.waterfordweather.com

High Low Average
Temperature 51.6°F10.9°C 40.1°F4.5°C 43.4°F6.3°C
Dew Point 50.8°F10.4°C 37.8°F3.2°C 40.7°F4.8°C
Winds 15.0 mph 24.1 kmh Calm Calm 6.0 mph SW9.7 kmh SW
Wind Gusts 25.3 mph40.7 kmh -- 10.0 mph16.1 kmh
Humidity 98% 75% 90%
Pressure 29.47 in998.0 mb 29.04 in983.4 mb -
Precipitation 0.77 in19.6 mm - -
Hour Temp Dew Point Humidity Winds Wind Gusts Pressure Precip Precip Rate Daily Precip Total
12:00 AM 41.7°F5.4°C 40.9°F4.9°C 97% Calm Calm -- 29.47 in998.0 mb - 0.00 in0.0 mm 0.00 in0.0 mm
12:10 AM 42.1°F5.6°C 41.3°F5.2°C 97% Calm Calm -- 29.47 in998.0 mb - 0.00 in0.0 mm 0.00 in0.0 mm
12:20 AM 42.3°F5.7°C 41.5°F5.3°C 97% Calm Calm -- 29.45 in997.3 mb - 0.00 in0.0 mm 0.00 in0.0 mm
12:30 AM 42.5°F5.8°C 41.7°F5.4°C 97% Calm Calm -- 29.44 in997.0 mb - 0.01 in0.3 mm 0.01 in0.3 mm
12:40 AM 43.5°F6.4°C 42.7°F5.9°C 97% 4.6 mph S7.4 kmh S 8.1 mph13.0 kmh 29.43 in996.6 mb - 0.00 in0.0 mm 0.01 in0.3 mm
12:50 AM 43.2°F6.2°C 42.4°F5.8°C 97% 6.9 mph S11.1 kmh S 9.2 mph14.8 kmh 29.42 in996.3 mb - 0.00 in0.0 mm 0.01 in0.3 mm
01:00 AM 43.9°F6.6°C 43.1°F6.2°C 97% 4.6 mph S7.4 kmh S 9.2 mph14.8 kmh 29.41 in995.9 mb - 0.00 in0.0 mm 0.01 in0.3 mm
01:10 AM 44.0°F6.7°C 43.2°F6.2°C 97% 4.6 mph SSW7.4 kmh SSW 8.1 mph13.0 kmh 29.40 in995.6 mb - 0.00 in0.0 mm 0.01 in0.3 mm
01:20 AM 43.9°F6.6°C 43.1°F6.2°C 97% 6.9 mph SW11.1 kmh SW 8.1 mph13.0 kmh 29.39 in995.3 mb - 0.01 in0.3 mm 0.02 in0.5 mm
01:30 AM 44.3°F6.8°C 43.5°F6.4°C 97% 9.2 mph SW14.8 kmh SW 15.0 mph24.1 kmh 29.39 in995.3 mb - 0.01 in0.3 mm 0.03 in0.8 mm
01:40 AM 44.7°F7.1°C 43.6°F6.4°C 96% 6.9 mph S11.1 kmh S 11.5 mph18.5 kmh 29.37 in994.6 mb - 0.01 in0.3 mm 0.04 in1.0 mm
01:50 AM 44.9°F7.2°C 43.8°F6.6°C 96% 9.2 mph S14.8 kmh S 11.5 mph18.5 kmh 29.36 in994.2 mb - 0.02 in0.5 mm 0.06 in1.5 mm
02:00 AM 45.2°F7.3°C 44.1°F6.7°C 96% 11.5 mph SSW18.5 kmh SSW 19.6 mph31.5 kmh 29.35 in993.9 mb - 0.04 in1.0 mm 0.09 in2.3 mm
02:10 AM 45.4°F7.4°C 44.3°F6.8°C 96% 10.4 mph SW16.7 kmh SW 19.6 mph31.5 kmh 29.35 in993.9 mb - 0.02 in0.5 mm 0.11 in2.8 mm
02:20 AM 45.2°F7.3°C 44.1°F6.7°C 96% 10.4 mph E16.7 kmh E 19.6 mph31.5 kmh 29.34 in993.6 mb - 0.03 in0.8 mm 0.14 in3.6 mm
02:30 AM 44.6°F7.0°C 43.6°F6.4°C 96% 9.2 mph W14.8 kmh W 12.7 mph20.4 kmh 29.34 in993.6 mb - 0.05 in1.3 mm 0.19 in4.8 mm
02:40 AM 43.9°F6.6°C 42.8°F6.0°C 96% 5.8 mph WNW9.3 kmh WNW 8.1 mph13.0 kmh 29.34 in993.6 mb - 0.05 in1.3 mm 0.24 in6.1 mm
02:50 AM 43.5°F6.4°C 42.4°F5.8°C 96% Calm Calm 1.2 mph1.9 kmh 29.32 in992.9 mb - 0.04 in1.0 mm 0.27 in6.9 mm
03:00 AM 43.2°F6.2°C 42.2°F5.7°C 96% Calm Calm -- 29.31 in992.6 mb - 0.02 in0.5 mm 0.29 in7.4 mm
03:10 AM 43.1°F6.2°C 42.3°F5.7°C 97% Calm Calm 1.2 mph1.9 kmh 29.29 in991.9 mb - 0.01 in0.3 mm 0.30 in7.6 mm
03:20 AM 42.8°F6.0°C 42.0°F5.6°C 97% 3.5 mph NW5.6 kmh NW 5.8 mph9.3 kmh 29.29 in991.9 mb - 0.04 in1.0 mm 0.34 in8.6 mm
03:30 AM 42.5°F5.8°C 41.7°F5.4°C 97% Calm Calm -- 29.27 in991.2 mb - 0.06 in1.5 mm 0.39 in9.9 mm
03:40 AM 42.4°F5.8°C 41.6°F5.3°C 97% Calm Calm 2.3 mph3.7 kmh 29.25 in990.5 mb - 0.03 in0.8 mm 0.42 in10.7 mm
03:50 AM 41.9°F5.5°C 41.1°F5.1°C 97% 1.2 mph ENE1.9 kmh ENE -- 29.24 in990.2 mb - 0.01 in0.3 mm 0.42 in10.7 mm
04:00 AM 41.7°F5.4°C 40.9°F4.9°C 97% Calm Calm 2.3 mph3.7 kmh 29.24 in990.2 mb - 0.00 in0.0 mm 0.42 in10.7 mm
04:10 AM 41.6°F5.3°C 40.8°F4.9°C 97% 1.2 mph N1.9 kmh N 4.6 mph7.4 kmh 29.24 in990.2 mb - 0.00 in0.0 mm 0.42 in10.7 mm
04:20 AM 41.5°F5.3°C 40.7°F4.8°C 97% 3.5 mph NW5.6 kmh NW 5.8 mph9.3 kmh 29.23 in989.8 mb - 0.01 in0.3 mm 0.43 in10.9 mm
04:30 AM 41.3°F5.2°C 40.5°F4.7°C 97% 1.2 mph E1.9 kmh E 2.3 mph3.7 kmh 29.23 in989.8 mb - 0.00 in0.0 mm 0.43 in10.9 mm
04:40 AM 40.9°F4.9°C 40.1°F4.5°C 97% Calm Calm -- 29.22 in989.5 mb - 0.00 in0.0 mm 0.43 in10.9 mm
04:50 AM 40.7°F4.8°C 39.9°F4.4°C 97% Calm Calm -- 29.23 in989.8 mb - 0.00 in0.0 mm 0.43 in10.9 mm
05:00 AM 40.5°F4.7°C 39.7°F4.3°C 97% Calm Calm -- 29.23 in989.8 mb - 0.00 in0.0 mm 0.43 in10.9 mm
05:10 AM 40.5°F4.7°C 39.7°F4.3°C 97% Calm Calm -- 29.22 in989.5 mb - 0.00 in0.0 mm 0.43 in10.9 mm
05:20 AM 40.3°F4.6°C 39.5°F4.2°C 97% Calm Calm -- 29.21 in989.2 mb - 0.00 in0.0 mm 0.43 in10.9 mm
05:30 AM 40.2°F4.6°C 39.4°F4.1°C 97% Calm Calm -- 29.20 in988.8 mb - 0.00 in0.0 mm 0.43 in10.9 mm
05:40 AM 40.3°F4.6°C 39.5°F4.2°C 97% Calm Calm -- 29.21 in989.2 mb - 0.00 in0.0 mm 0.43 in10.9 mm
05:50 AM 40.4°F4.7°C 39.6°F4.2°C 97% Calm Calm -- 29.22 in989.5 mb - 0.00 in0.0 mm 0.43 in10.9 mm
06:00 AM 40.5°F4.7°C 40.0°F4.4°C 98% 2.3 mph NNE3.7 kmh NNE 6.9 mph11.1 kmh 29.22 in989.5 mb - 0.00 in0.0 mm 0.43 in10.9 mm
06:10 AM 40.9°F4.9°C 40.4°F4.7°C 98% 3.5 mph WNW5.6 kmh WNW 8.1 mph13.0 kmh 29.22 in989.5 mb - 0.00 in0.0 mm 0.43 in10.9 mm
06:20 AM 41.1°F5.1°C 40.6°F4.8°C 98% 4.6 mph WSW7.4 kmh WSW 8.1 mph13.0 kmh 29.22 in989.5 mb - 0.00 in0.0 mm 0.43 in10.9 mm
06:30 AM 41.0°F5.0°C 40.5°F4.7°C 98% 3.5 mph W5.6 kmh W 4.6 mph7.4 kmh 29.23 in989.8 mb - 0.00 in0.0 mm 0.43 in10.9 mm
06:40 AM 40.9°F4.9°C 40.3°F4.6°C 98% 3.5 mph W5.6 kmh W 8.1 mph13.0 kmh 29.23 in989.8 mb - 0.00 in0.0 mm 0.43 in10.9 mm
06:50 AM 40.6°F4.8°C 40.0°F4.4°C 98% 3.5 mph WSW5.6 kmh WSW 8.1 mph13.0 kmh 29.24 in990.2 mb - 0.00 in0.0 mm 0.43 in10.9 mm
07:00 AM 40.1°F4.5°C 39.6°F4.2°C 98% 4.6 mph WSW7.4 kmh WSW 6.9 mph11.1 kmh 29.24 in990.2 mb - 0.00 in0.0 mm 0.43 in10.9 mm
07:10 AM 40.4°F4.7°C 39.9°F4.4°C 98% 5.8 mph WSW9.3 kmh WSW 11.5 mph18.5 kmh 29.25 in990.5 mb - 0.00 in0.0 mm 0.43 in10.9 mm
07:20 AM 40.9°F4.9°C 40.4°F4.7°C 98% 5.8 mph WSW9.3 kmh WSW 8.1 mph13.0 kmh 29.25 in990.5 mb - 0.00 in0.0 mm 0.43 in10.9 mm
07:30 AM 41.2°F5.1°C 40.7°F4.8°C 98% 11.5 mph W18.5 kmh W 21.9 mph35.2 kmh 29.26 in990.9 mb - 0.00 in0.0 mm 0.43 in10.9 mm
07:40 AM 40.9°F4.9°C 40.4°F4.7°C 98% 10.4 mph W16.7 kmh W 20.7 mph33.3 kmh 29.25 in990.5 mb - 0.00 in0.0 mm 0.43 in10.9 mm
07:50 AM 40.9°F4.9°C 40.4°F4.7°C 98% 6.9 mph W11.1 kmh W 12.7 mph20.4 kmh 29.25 in990.5 mb - 0.00 in0.0 mm 0.43 in10.9 mm
08:00 AM 41.4°F5.2°C 40.6°F4.8°C 97% 10.4 mph W16.7 kmh W 19.6 mph31.5 kmh 29.26 in990.9 mb - 0.00 in0.0 mm 0.43 in10.9 mm
08:10 AM 42.2°F5.7°C 40.6°F4.8°C 94% 10.4 mph W16.7 kmh W 15.0 mph24.1 kmh 29.27 in991.2 mb - 0.00 in0.0 mm 0.43 in10.9 mm
08:20 AM 42.4°F5.8°C 39.7°F4.3°C 90% 8.1 mph WNW13.0 kmh WNW 13.8 mph22.2 kmh 29.28 in991.5 mb - 0.00 in0.0 mm 0.43 in10.9 mm
08:30 AM 42.0°F5.6°C 39.0°F3.9°C 89% 6.9 mph W11.1 kmh W 12.7 mph20.4 kmh 29.28 in991.5 mb - 0.00 in0.0 mm 0.43 in10.9 mm
08:40 AM 41.4°F5.2°C 38.7°F3.7°C 90% 3.5 mph WNW5.6 kmh WNW 6.9 mph11.1 kmh 29.29 in991.9 mb - 0.00 in0.0 mm 0.43 in10.9 mm
08:50 AM 41.8°F5.4°C 38.5°F3.6°C 88% 8.1 mph WNW13.0 kmh WNW 19.6 mph31.5 kmh 29.29 in991.9 mb - 0.00 in0.0 mm 0.43 in10.9 mm
09:00 AM 42.0°F5.6°C 38.1°F3.4°C 86% 2.3 mph W3.7 kmh W 4.6 mph7.4 kmh 29.30 in992.2 mb - 0.00 in0.0 mm 0.43 in10.9 mm
09:10 AM 41.6°F5.3°C 38.3°F3.5°C 88% 2.3 mph WNW3.7 kmh WNW 5.8 mph9.3 kmh 29.31 in992.6 mb - 0.00 in0.0 mm 0.43 in10.9 mm
09:20 AM 41.9°F5.5°C 38.3°F3.5°C 87% 8.1 mph W13.0 kmh W 10.4 mph16.7 kmh 29.31 in992.6 mb - 0.00 in0.0 mm 0.43 in10.9 mm
09:30 AM 42.5°F5.8°C 38.3°F3.5°C 85% 11.5 mph W18.5 kmh W 19.6 mph31.5 kmh 29.31 in992.6 mb - 0.00 in0.0 mm 0.43 in10.9 mm
09:40 AM 42.8°F6.0°C 38.3°F3.5°C 84% 10.4 mph W16.7 kmh W 20.7 mph33.3 kmh 29.32 in992.9 mb - 0.00 in0.0 mm 0.43 in10.9 mm
09:50 AM 43.1°F6.2°C 38.6°F3.7°C 84% 12.7 mph W20.4 kmh W 18.4 mph29.6 kmh 29.32 in992.9 mb - 0.00 in0.0 mm 0.43 in10.9 mm
10:00 AM 42.7°F5.9°C 38.8°F3.8°C 86% 5.8 mph WNW9.3 kmh WNW 13.8 mph22.2 kmh 29.33 in993.2 mb - 0.00 in0.0 mm 0.43 in10.9 mm
10:10 AM 42.8°F6.0°C 38.6°F3.7°C 85% 5.8 mph WNW9.3 kmh WNW 13.8 mph22.2 kmh 29.34 in993.6 mb - 0.00 in0.0 mm 0.43 in10.9 mm
10:20 AM 43.0°F6.1°C 38.2°F3.4°C 83% 5.8 mph WNW9.3 kmh WNW 8.1 mph13.0 kmh 29.35 in993.9 mb - 0.00 in0.0 mm 0.43 in10.9 mm
10:30 AM 43.2°F6.2°C 37.8°F3.2°C 81% 11.5 mph W18.5 kmh W 16.1 mph25.9 kmh 29.35 in993.9 mb - 0.00 in0.0 mm 0.43 in10.9 mm
10:40 AM 43.7°F6.5°C 38.2°F3.4°C 81% 10.4 mph W16.7 kmh W 15.0 mph24.1 kmh 29.36 in994.2 mb - 0.00 in0.0 mm 0.43 in10.9 mm
10:50 AM 43.9°F6.6°C 38.4°F3.6°C 81% 11.5 mph WNW18.5 kmh WNW 19.6 mph31.5 kmh 29.36 in994.2 mb - 0.00 in0.0 mm 0.43 in10.9 mm
11:00 AM 44.2°F6.8°C 38.7°F3.7°C 81% 9.2 mph W14.8 kmh W 16.1 mph25.9 kmh 29.37 in994.6 mb - 0.00 in0.0 mm 0.43 in10.9 mm
11:10 AM 44.5°F6.9°C 38.4°F3.6°C 79% 11.5 mph W18.5 kmh W 21.9 mph35.2 kmh 29.37 in994.6 mb - 0.01 in0.3 mm 0.44 in11.2 mm
11:20 AM 44.6°F7.0°C 38.8°F3.8°C 80% 9.2 mph W14.8 kmh W 18.4 mph29.6 kmh 29.37 in994.6 mb - 0.00 in0.0 mm 0.44 in11.2 mm
11:30 AM 44.8°F7.1°C 39.0°F3.9°C 80% 8.1 mph WNW13.0 kmh WNW 15.0 mph24.1 kmh 29.38 in994.9 mb - 0.00 in0.0 mm 0.44 in11.2 mm
11:40 AM 44.9°F7.2°C 39.1°F3.9°C 80% 15.0 mph WNW24.1 kmh WNW 25.3 mph40.7 kmh 29.39 in995.3 mb - 0.00 in0.0 mm 0.44 in11.2 mm
11:50 AM 45.1°F7.3°C 39.0°F3.9°C 79% 13.8 mph WNW22.2 kmh WNW 16.1 mph25.9 kmh 29.39 in995.3 mb - 0.00 in0.0 mm 0.44 in11.2 mm
12:00 PM 45.2°F7.3°C 39.1°F3.9°C 79% 12.7 mph W20.4 kmh W 18.4 mph29.6 kmh 29.40 in995.6 mb - 0.00 in0.0 mm 0.44 in11.2 mm
12:10 PM 45.2°F7.3°C 39.1°F3.9°C 79% 12.7 mph WNW20.4 kmh WNW 25.3 mph40.7 kmh 29.40 in995.6 mb - 0.00 in0.0 mm 0.44 in11.2 mm
12:20 PM 45.5°F7.5°C 38.7°F3.7°C 77% 11.5 mph W18.5 kmh W 20.7 mph33.3 kmh 29.41 in995.9 mb - 0.00 in0.0 mm 0.44 in11.2 mm
12:40 PM 45.5°F7.5°C 38.7°F3.7°C 77% 12.7 mph W20.4 kmh W 18.4 mph29.6 kmh 29.41 in995.9 mb - 0.00 in0.0 mm 0.44 in11.2 mm
12:50 PM 45.6°F7.6°C 38.5°F3.6°C 76% 10.4 mph W16.7 kmh W 16.1 mph25.9 kmh 29.42 in996.3 mb - 0.00 in0.0 mm 0.44 in11.2 mm
01:00 PM 45.6°F7.6°C 38.5°F3.6°C 76% 9.2 mph W14.8 kmh W 11.5 mph18.5 kmh 29.43 in996.6 mb - 0.00 in0.0 mm 0.44 in11.2 mm
01:10 PM 45.6°F7.6°C 38.5°F3.6°C 76% 10.4 mph W16.7 kmh W 12.7 mph20.4 kmh 29.43 in996.6 mb - 0.00 in0.0 mm 0.44 in11.2 mm
01:20 PM 45.4°F7.4°C 38.6°F3.7°C 77% 10.4 mph W16.7 kmh W 13.8 mph22.2 kmh 29.44 in997.0 mb - 0.00 in0.0 mm 0.44 in11.2 mm
01:30 PM 45.5°F7.5°C 38.0°F3.3°C 75% 11.5 mph WNW18.5 kmh WNW 16.1 mph25.9 kmh 29.44 in997.0 mb - 0.00 in0.0 mm 0.44 in11.2 mm
01:40 PM 45.5°F7.5°C 38.0°F3.3°C 75% 12.7 mph WNW20.4 kmh WNW 21.9 mph35.2 kmh 29.44 in997.0 mb - 0.00 in0.0 mm 0.44 in11.2 mm
01:50 PM 45.6°F7.6°C 38.5°F3.6°C 76% 8.1 mph WNW13.0 kmh WNW 13.8 mph22.2 kmh 29.44 in997.0 mb - 0.00 in0.0 mm 0.44 in11.2 mm
02:00 PM 45.6°F7.6°C 38.8°F3.8°C 77% 10.4 mph WNW16.7 kmh WNW 15.0 mph24.1 kmh 29.44 in997.0 mb - 0.00 in0.0 mm 0.44 in11.2 mm
02:10 PM 45.2°F7.3°C 38.5°F3.6°C 77% 13.8 mph W22.2 kmh W 20.7 mph33.3 kmh 29.45 in997.3 mb - 0.00 in0.0 mm 0.44 in11.2 mm
02:20 PM 45.2°F7.3°C 38.7°F3.7°C 78% 11.5 mph W18.5 kmh W 16.1 mph25.9 kmh 29.45 in997.3 mb - 0.00 in0.0 mm 0.44 in11.2 mm
02:30 PM 45.2°F7.3°C 39.4°F4.1°C 80% 5.8 mph WNW9.3 kmh WNW 11.5 mph18.5 kmh 29.45 in997.3 mb - 0.00 in0.0 mm 0.44 in11.2 mm
02:40 PM 44.8°F7.1°C 39.4°F4.1°C 81% 6.9 mph W11.1 kmh W 11.5 mph18.5 kmh 29.45 in997.3 mb - 0.00 in0.0 mm 0.44 in11.2 mm
02:50 PM 44.5°F6.9°C 39.1°F3.9°C 81% 6.9 mph W11.1 kmh W 12.7 mph20.4 kmh 29.45 in997.3 mb - 0.00 in0.0 mm 0.44 in11.2 mm
03:00 PM 44.4°F6.9°C 38.9°F3.8°C 81% 6.9 mph W11.1 kmh W 12.7 mph20.4 kmh 29.45 in997.3 mb - 0.00 in0.0 mm 0.44 in11.2 mm
03:10 PM 44.2°F6.8°C 39.1°F3.9°C 82% 5.8 mph WSW9.3 kmh WSW 8.1 mph13.0 kmh 29.46 in997.6 mb - 0.00 in0.0 mm 0.44 in11.2 mm
03:20 PM 44.0°F6.7°C 38.9°F3.8°C 82% 4.6 mph W7.4 kmh W 8.1 mph13.0 kmh 29.46 in997.6 mb - 0.00 in0.0 mm 0.44 in11.2 mm
03:30 PM 43.6°F6.4°C 38.8°F3.8°C 83% 5.8 mph W9.3 kmh W 8.1 mph13.0 kmh 29.46 in997.6 mb - 0.00 in0.0 mm 0.44 in11.2 mm
03:40 PM 43.5°F6.4°C 38.4°F3.6°C 82% 8.1 mph W13.0 kmh W 12.7 mph20.4 kmh 29.46 in997.6 mb - 0.00 in0.0 mm 0.44 in11.2 mm
03:50 PM 43.7°F6.5°C 38.6°F3.7°C 82% 4.6 mph WSW7.4 kmh WSW 9.2 mph14.8 kmh 29.46 in997.6 mb - 0.00 in0.0 mm 0.44 in11.2 mm
04:00 PM 43.3°F6.3°C 38.8°F3.8°C 84% 2.3 mph WNW3.7 kmh WNW 6.9 mph11.1 kmh 29.47 in998.0 mb - 0.00 in0.0 mm 0.44 in11.2 mm
04:10 PM 43.3°F6.3°C 38.5°F3.6°C 83% 6.9 mph W11.1 kmh W 11.5 mph18.5 kmh 29.46 in997.6 mb - 0.00 in0.0 mm 0.44 in11.2 mm
04:40 PM 42.5°F5.8°C 38.6°F3.7°C 86% 2.3 mph WSW3.7 kmh WSW 5.8 mph9.3 kmh 29.46 in997.6 mb - 0.00 in0.0 mm 0.44 in11.2 mm
04:50 PM 42.0°F5.6°C 38.4°F3.6°C 87% 2.3 mph WSW3.7 kmh WSW 5.8 mph9.3 kmh 29.46 in997.6 mb - 0.00 in0.0 mm 0.44 in11.2 mm
05:00 PM 41.7°F5.4°C 38.4°F3.6°C 88% 2.3 mph SSW3.7 kmh SSW 5.8 mph9.3 kmh 29.46 in997.6 mb - 0.00 in0.0 mm 0.44 in11.2 mm
05:20 PM 41.5°F5.3°C 38.5°F3.6°C 89% 3.5 mph SW5.6 kmh SW 6.9 mph11.1 kmh 29.47 in998.0 mb - 0.00 in0.0 mm 0.44 in11.2 mm
05:30 PM 41.6°F5.3°C 38.6°F3.7°C 89% 3.5 mph WSW5.6 kmh WSW 6.9 mph11.1 kmh 29.46 in997.6 mb - 0.00 in0.0 mm 0.44 in11.2 mm
05:40 PM 41.9°F5.5°C 38.6°F3.7°C 88% 3.5 mph W5.6 kmh W 5.8 mph9.3 kmh 29.45 in997.3 mb - 0.00 in0.0 mm 0.44 in11.2 mm
05:50 PM 42.1°F5.6°C 38.8°F3.8°C 88% 3.5 mph W5.6 kmh W 5.8 mph9.3 kmh 29.46 in997.6 mb - 0.00 in0.0 mm 0.44 in11.2 mm
06:00 PM 42.4°F5.8°C 39.1°F3.9°C 88% 2.3 mph W3.7 kmh W 5.8 mph9.3 kmh 29.45 in997.3 mb - 0.00 in0.0 mm 0.44 in11.2 mm
06:10 PM 42.7°F5.9°C 39.4°F4.1°C 88% 9.2 mph WSW14.8 kmh WSW 13.8 mph22.2 kmh 29.44 in997.0 mb - 0.00 in0.0 mm 0.44 in11.2 mm
06:20 PM 43.4°F6.3°C 39.8°F4.3°C 87% 8.1 mph W13.0 kmh W 11.5 mph18.5 kmh 29.44 in997.0 mb - 0.00 in0.0 mm 0.44 in11.2 mm
06:30 PM 43.7°F6.5°C 39.8°F4.3°C 86% 4.6 mph WSW7.4 kmh WSW 8.1 mph13.0 kmh 29.43 in996.6 mb - 0.00 in0.0 mm 0.44 in11.2 mm
06:40 PM 43.7°F6.5°C 39.8°F4.3°C 86% 1.2 mph W1.9 kmh W 4.6 mph7.4 kmh 29.43 in996.6 mb - 0.00 in0.0 mm 0.44 in11.2 mm
06:50 PM 43.7°F6.5°C 39.8°F4.3°C 86% Calm Calm -- 29.42 in996.3 mb - 0.00 in0.0 mm 0.44 in11.2 mm
07:00 PM 43.5°F6.4°C 39.9°F4.4°C 87% Calm Calm -- 29.42 in996.3 mb - 0.00 in0.0 mm 0.44 in11.2 mm
07:10 PM 43.4°F6.3°C 40.1°F4.5°C 88% Calm Calm 1.2 mph1.9 kmh 29.41 in995.9 mb - 0.00 in0.0 mm 0.44 in11.2 mm
07:20 PM 43.4°F6.3°C 40.4°F4.7°C 89% 1.2 mph ESE1.9 kmh ESE 8.1 mph13.0 kmh 29.41 in995.9 mb - 0.00 in0.0 mm 0.44 in11.2 mm
07:30 PM 43.4°F6.3°C 40.4°F4.7°C 89% 2.3 mph W3.7 kmh W 5.8 mph9.3 kmh 29.40 in995.6 mb - 0.00 in0.0 mm 0.44 in11.2 mm
07:40 PM 43.1°F6.2°C 40.3°F4.6°C 90% Calm Calm -- 29.39 in995.3 mb - 0.01 in0.3 mm 0.45 in11.4 mm
07:50 PM 42.6°F5.9°C 40.2°F4.6°C 91% Calm Calm 8.1 mph13.0 kmh 29.38 in994.9 mb - 0.01 in0.3 mm 0.46 in11.7 mm
08:00 PM 42.2°F5.7°C 40.0°F4.4°C 92% Calm Calm -- 29.37 in994.6 mb - 0.01 in0.3 mm 0.47 in11.9 mm
08:10 PM 41.6°F5.3°C 39.7°F4.3°C 93% Calm Calm -- 29.36 in994.2 mb - 0.01 in0.3 mm 0.48 in12.2 mm
08:20 PM 41.6°F5.3°C 40.0°F4.4°C 94% 3.5 mph SE5.6 kmh SE 5.8 mph9.3 kmh 29.34 in993.6 mb - 0.01 in0.3 mm 0.49 in12.4 mm
08:30 PM 41.7°F5.4°C 40.1°F4.5°C 94% 3.5 mph ESE5.6 kmh ESE 4.6 mph7.4 kmh 29.33 in993.2 mb - 0.01 in0.3 mm 0.50 in12.7 mm
08:40 PM 41.7°F5.4°C 40.1°F4.5°C 94% 3.5 mph ESE5.6 kmh ESE 5.8 mph9.3 kmh 29.31 in992.6 mb - 0.02 in0.5 mm 0.52 in13.2 mm
08:50 PM 42.0°F5.6°C 40.7°F4.8°C 95% 3.5 mph E5.6 kmh E 6.9 mph11.1 kmh 29.29 in991.9 mb - 0.01 in0.3 mm 0.53 in13.5 mm
09:00 PM 42.3°F5.7°C 41.0°F5.0°C 95% 5.8 mph ESE9.3 kmh ESE 8.1 mph13.0 kmh 29.28 in991.5 mb - 0.00 in0.0 mm 0.53 in13.5 mm
09:10 PM 42.7°F5.9°C 41.4°F5.2°C 95% 5.8 mph SE9.3 kmh SE 8.1 mph13.0 kmh 29.26 in990.9 mb - 0.01 in0.3 mm 0.54 in13.7 mm
09:20 PM 43.7°F6.5°C 42.6°F5.9°C 96% 8.1 mph SSE13.0 kmh SSE 11.5 mph18.5 kmh 29.25 in990.5 mb - 0.01 in0.3 mm 0.55 in14.0 mm
09:30 PM 44.5°F6.9°C 43.4°F6.3°C 96% 10.4 mph SSE16.7 kmh SSE 13.8 mph22.2 kmh 29.22 in989.5 mb - 0.01 in0.3 mm 0.56 in14.2 mm
09:40 PM 44.9°F7.2°C 43.8°F6.6°C 96% 9.2 mph SSE14.8 kmh SSE 12.7 mph20.4 kmh 29.22 in989.5 mb - 0.02 in0.5 mm 0.58 in14.7 mm
09:50 PM 45.1°F7.3°C 44.0°F6.7°C 96% 10.4 mph SSE16.7 kmh SSE 13.8 mph22.2 kmh 29.20 in988.8 mb - 0.01 in0.3 mm 0.59 in15.0 mm
10:00 PM 45.2°F7.3°C 44.1°F6.7°C 96% 12.7 mph SSE20.4 kmh SSE 19.6 mph31.5 kmh 29.17 in987.8 mb - 0.02 in0.5 mm 0.61 in15.5 mm
10:10 PM 45.6°F7.6°C 44.5°F6.9°C 96% 11.5 mph SSE18.5 kmh SSE 19.6 mph31.5 kmh 29.15 in987.1 mb - 0.02 in0.5 mm 0.63 in16.0 mm
10:20 PM 46.2°F7.9°C 45.1°F7.3°C 96% 13.8 mph SSE22.2 kmh SSE 16.1 mph25.9 kmh 29.14 in986.8 mb - 0.02 in0.5 mm 0.64 in16.3 mm
10:30 PM 46.9°F8.3°C 45.8°F7.7°C 96% 10.4 mph SSE16.7 kmh SSE 15.0 mph24.1 kmh 29.13 in986.5 mb - 0.02 in0.5 mm 0.66 in16.8 mm
10:40 PM 47.2°F8.4°C 46.1°F7.8°C 96% 8.1 mph SE13.0 kmh SE 11.5 mph18.5 kmh 29.12 in986.1 mb - 0.04 in1.0 mm 0.70 in17.8 mm
10:50 PM 47.9°F8.8°C 46.8°F8.2°C 96% 11.5 mph S18.5 kmh S 16.1 mph25.9 kmh 29.10 in985.4 mb - 0.03 in0.8 mm 0.73 in18.5 mm
11:00 PM 48.7°F9.3°C 47.9°F8.8°C 97% 9.2 mph SW14.8 kmh SW 15.0 mph24.1 kmh 29.09 in985.1 mb - 0.01 in0.3 mm 0.74 in18.8 mm
11:10 PM 49.1°F9.5°C 48.3°F9.1°C 97% 8.1 mph SW13.0 kmh SW 12.7 mph20.4 kmh 29.09 in985.1 mb - 0.02 in0.5 mm 0.76 in19.3 mm
11:20 PM 49.6°F9.8°C 48.8°F9.3°C 97% 9.2 mph WSW14.8 kmh WSW 18.4 mph29.6 kmh 29.07 in984.4 mb - 0.02 in0.5 mm 0.77 in19.6 mm
11:30 PM 50.1°F10.1°C 49.3°F9.6°C 97% 9.2 mph WSW14.8 kmh WSW 13.8 mph22.2 kmh 29.06 in984.1 mb - 0.01 in0.3 mm 0.77 in19.6 mm
11:40 PM 50.8°F10.4°C 50.0°F10.0°C 97% 13.8 mph SW22.2 kmh SW 21.9 mph35.2 kmh 29.05 in983.7 mb - 0.00 in0.0 mm 0.77 in19.6 mm
11:50 PM 51.6°F10.9°C 50.8°F10.4°C 97% 11.5 mph W18.5 kmh W 21.9 mph35.2 kmh 29.04 in983.4 mb - 0.00 in0.0 mm 0.77 in19.6 mm